• Join FlightAware (Why Join?)
  • Login
  • US Flag 
08:10AM EDT


 

Airport Tracker/Info


-or-


 

Live Flight TrackerFlight Track Log ✈ UAE777 ✈ 15-Aug-2014 ✈ KPAE - OMDB / DXB

Flight Track Log - Related Links

Times and Time Zones

All times are in EDT time to prevent confusion due to time zone crossing. See the UAE777 flight status page for this flight to view local times or setup timezone preferences in your user account.

Time Position Orientation Groundspeed Altitude Reporting Facility
EDT Latitude Longitude Course Direction KTS MPH feet Rate Location/Type
05:29PM 47.9189 -122.2858 180° South 53 61  Level FlightAware ADS-B (KPAE)
05:30PM 47.8821 -122.2866 186° South 177 204 1,700 2,040 Climbing FlightAware ADS-B (KPAE)
05:30PM 47.8800 -122.2868 176° South 187 215 2,200 1,800 Climbing FlightAware ADS-B (KPAE)
05:31PM 47.8540 -122.2845 178° South 225 259 2,900 720 Climbing FlightAware ADS-B (KPAE)
05:31PM 47.8247 -122.2934 222° Southwest 259 298 2,900 180 Level FlightAware ADS-B (KPAE)
05:32PM 47.7989 -122.3617 248° West 261 300 3,100 1,560 Climbing FlightAware ADS-B (KPAE)
05:32PM 47.8017 -122.4165 299° West 269 310 4,800 3,360 Climbing FlightAware ADS-B (KPAE)
05:32PM 47.8081 -122.4280 312° West 270 311 5,300 3,480 Climbing FlightAware ADS-B
05:33PM 47.8124 -122.4340 319° Northwest 271 312 5,500 3,000 Climbing FlightAware ADS-B
05:33PM 47.8159 -122.4380 323° Northwest 272 313 5,700 3,000 Climbing FlightAware ADS-B
05:33PM 47.8204 -122.4426 325° Northwest 273 314 5,900 3,360 Climbing FlightAware ADS-B (KPAE)
05:33PM 47.8415 -122.4634 327° Northwest 275 316 7,100 3,300 Climbing FlightAware ADS-B (KPAE)
05:33PM 47.8599 -122.4790 329° Northwest 276 318 7,900 2,820 Climbing FlightAware ADS-B
05:33PM 47.8641 -122.4810 342° North 281 323 8,000 3,000 Climbing FlightAware ADS-B
05:33PM 47.8653 -122.4811 347° North 283 326 8,200 3,000 Climbing FlightAware ADS-B (KPAE)
05:33PM 47.8687 -122.4820 347° North 283 326 8,200 1,980 Level FlightAware ADS-B
05:33PM 47.8755 -122.4830 355° North 286 329 8,400 3,300 Climbing FlightAware ADS-B
05:34PM 47.8808 -122.4830 North 287 330 8,700 3,720 Climbing FlightAware ADS-B
05:34PM 47.8848 -122.4823 North 288 331 8,900 2,400 Climbing FlightAware ADS-B (KPAE)
05:34PM 47.8871 -122.4820 10° North 288 331 8,900 3,000 Level FlightAware ADS-B
05:34PM 47.8932 -122.4790 17° North 290 334 9,200 3,000 Climbing FlightAware ADS-B
05:34PM 47.8945 -122.4783 19° North 291 335 9,200 3,000 Level FlightAware ADS-B (KPAE)
05:34PM 47.8979 -122.4760 24° Northeast 292 336 9,400 3,960 Climbing FlightAware ADS-B
05:34PM 47.9024 -122.4720 29° Northeast 292 336 9,600 2,640 Climbing FlightAware ADS-B
05:34PM 47.9080 -122.4660 38° Northeast 295 339 9,800 1,920 Climbing FlightAware ADS-B
05:34PM 47.9399 -122.4203 45° Northeast 322 371 10,800 1,860 Climbing FlightAware ADS-B (CYVR)
05:34PM 47.9446 -122.4130 45° Northeast 329 379 10,900 1,920 Climbing FlightAware ADS-B
05:35PM 47.9808 -122.3582 45° Northeast 357 411 12,000 2,520 Climbing FlightAware ADS-B (KPAE)
05:36PM 48.0170 -122.3041 45° Northeast 362 417 13,600 3,000 Climbing FlightAware ADS-B (CYVR)
05:36PM 48.0187 -122.3020 45° Northeast 363 418 13,600 2,880 Level FlightAware ADS-B
05:36PM 48.0557 -122.2470 45° Northeast 372 428 15,100 2,820 Climbing FlightAware ADS-B
05:36PM 48.0629 -122.2364 45° Northeast 373 429 15,300 2,580 Climbing FlightAware ADS-B (CYWH)
05:37PM 48.0928 -122.1920 45° Northeast 379 436 16,400 2,700 Climbing FlightAware ADS-B
05:37PM 48.1084 -122.1695 45° Northeast 383 441 17,000 2,460 Climbing FlightAware ADS-B (CYWH)
05:37PM 48.1315 -122.1360 45° Northeast 387 445 17,700 2,460 Climbing FlightAware ADS-B
05:37PM 48.1432 -122.1181 45° Northeast 390 449 18,300 2,580 Climbing FlightAware ADS-B (KPAE)
05:38PM 48.1704 -122.0780 45° Northeast 395 455 19,000 2,400 Climbing FlightAware ADS-B
05:38PM 48.1934 -122.0452 42° Northeast 398 458 19,700 2,100 Climbing FlightAware ADS-B (CYVR)
05:38PM 48.2116 -122.0210 42° Northeast 402 463 20,100 2,100 Climbing FlightAware ADS-B
05:38PM 48.2374 -121.9868 42° Northeast 406 467 20,800 2,160 Climbing FlightAware ADS-B (CYWH)
05:39PM 48.2534 -121.9650 42° Northeast 409 471 21,200 2,160 Climbing FlightAware ADS-B
05:39PM 48.2794 -121.9301 42° Northeast 414 476 21,900 2,400 Climbing FlightAware ADS-B (CYVR)
05:39PM 48.2959 -121.9080 42° Northeast 415 478 22,400 2,760 Climbing FlightAware ADS-B
05:40PM 48.3363 -121.8524 43° Northeast 411 473 23,800 2,760 Climbing FlightAware ADS-B (CYVR)
05:40PM 48.3387 -121.8490 42° Northeast 409 471 23,800 2,880 Level FlightAware ADS-B
05:40PM 48.3803 -121.7910 43° Northeast 400 460 25,300 2,520 Climbing FlightAware ADS-B
05:40PM 48.3926 -121.7745 43° Northeast 403 464 25,500 1,080 Climbing FlightAware ADS-B (CYVR)
05:41PM 48.4409 -121.7079 43° Northeast 420 483 26,100 1,200 Climbing FlightAware ADS-B (CYWH)
05:41PM 48.4495 -121.6960 43° Northeast 422 486 26,300 1,680 Climbing FlightAware ADS-B
05:41PM 48.4957 -121.6320 43° Northeast 426 490 27,200 1,860 Climbing FlightAware ADS-B
05:42PM 48.5030 -121.6219 43° Northeast 428 493 27,500 1,680 Climbing FlightAware ADS-B (CYCD)
05:42PM 48.5569 -121.5470 43° Northeast 428 493 28,400 1,620 Climbing FlightAware ADS-B
05:42PM 48.5737 -121.5238 43° Northeast 436 502 28,800 1,020 Climbing FlightAware ADS-B (CYVR)
05:43PM 48.6256 -121.4515 43° Northeast 452 520 29,200 1,080 Climbing FlightAware ADS-B (CYWH)
05:44PM 48.6889 -121.3629 43° Northeast 460 529 30,200 1,320 Climbing FlightAware ADS-B (CYWH)
05:44PM 48.7506 -121.2763 43° Northeast 469 540 31,000 1,140 Climbing FlightAware ADS-B (CYWH)
05:45PM 48.8024 -121.2034 43° Northeast 476 548 31,600 1,320 Climbing FlightAware ADS-B (CYVR)
05:45PM 48.8658 -121.1141 43° Northeast 477 549 32,600 1,080 Climbing FlightAware ADS-B (CYVR)
05:46PM 48.9204 -121.0367 43° Northeast 481 554 33,000 300 Climbing FlightAware ADS-B (KPAE)
05:47PM 48.9526 -120.9911 43° Northeast 480 552 33,000  Level FlightAware ADS-B (KPAE)
05:47PM 49.0308 -120.8800 43° Northeast 480 552 33,000  Level FlightAware ADS-B
05:47PM 49.0618 -120.8353 43° Northeast 480 552 33,000  Level FlightAware ADS-B (CYVR)
05:48PM 49.0800 -120.8090 43° Northeast 480 552 33,000  Level FlightAware ADS-B
05:48PM 49.1152 -120.7589 43° Northeast 481 554 33,000  Level FlightAware ADS-B (KPAE)
05:49PM 49.1546 -120.7022 43° Northeast 481 554 33,000  Level FlightAware ADS-B (CYVR)
05:49PM 49.2350 -120.5864 43° Northeast 479 551 33,000  Level FlightAware ADS-B (CYVR)
05:50PM 49.3055 -120.4845 43° Northeast 478 550 33,000  Level FlightAware ADS-B (CYVR)
05:51PM 49.3713 -120.3912 40° Northeast 482 555 33,000  Level FlightAware ADS-B (CYVR)
05:53PM 49.5840 -120.1560 35° Northeast 495 570 33,000  Level FlightAware ADS-B (CYVR)
05:53PM 49.6333 -120.0833 35° Northeast 490 564 33,000  Level Vancouver Center
05:54PM 49.7333 -119.9500 41° Northeast 490 564 33,000  Level Vancouver Center
05:55PM 49.8500 -119.8333 33° Northeast 490 564 33,000  Level Vancouver Center
05:56PM 49.9667 -119.7000 36° Northeast 490 564 33,000  Level Vancouver Center
05:57PM 50.0833 -119.5833 33° Northeast 490 564 33,000  Level Vancouver Center
05:58PM 50.1833 -119.4667 37° Northeast 480 552 33,000  Level Vancouver Center
05:59PM 50.2833 -119.3500 37° Northeast 470 541 33,000  Level Vancouver Center
06:00PM 50.4000 -119.2167 36° Northeast 470 541 33,000  Level Vancouver Center
06:01PM 50.5167 -119.1000 32° Northeast 480 552 33,000  Level Vancouver Center
06:03PM 50.7000 -118.9333 30° Northeast 480 552 33,000  Level Edmonton Center
06:04PM 50.8167 -118.8333 28° Northeast 480 552 33,000  Level Edmonton Center
06:05PM 50.9333 -118.7333 28° Northeast 470 541 33,000  Level Edmonton Center
06:06PM 51.0500 -118.6333 28° Northeast 470 541 33,000  Level Edmonton Center
06:07PM 51.1667 -118.5333 28° Northeast 470 541 33,000  Level Edmonton Center
06:09PM 51.4000 -118.3333 29° Northeast 470 541 33,000  Level Edmonton Center
06:10PM 51.5000 -118.2667 23° Northeast 470 541 33,000  Level Edmonton Center
06:11PM 51.6500 -118.1333 29° Northeast 480 552 33,000  Level Edmonton Center
06:12PM 51.7500 -118.0333 32° Northeast 480 552 33,000  Level Edmonton Center
06:13PM 51.8667 -117.9333 28° Northeast 490 564 33,000  Level Edmonton Center
06:14PM 51.9833 -117.8333 28° Northeast 490 564 33,000 300 Level Edmonton Center
06:15PM 52.1167 -117.7333 25° Northeast 490 564 33,700 900 Climbing Edmonton Center
06:16PM 52.2333 -117.6167 31° Northeast 490 564 34,800 600 Climbing Edmonton Center
06:17PM 52.3500 -117.5000 31° Northeast 490 564 35,000 60 Climbing Edmonton Center
06:18PM 52.4833 -117.3833 28° Northeast 490 564 35,000  Level Edmonton Center
06:19PM 52.6000 -117.2833 27° Northeast 490 564 35,000  Level Edmonton Center
06:20PM 52.7167 -117.1833 27° Northeast 490 564 35,000  Level Edmonton Center
06:21PM 52.8167 -117.0667 35° Northeast 490 564 35,000  Level Edmonton Center
06:22PM 52.9500 -116.9667 24° Northeast 490 564 35,000  Level Edmonton Center
06:23PM 53.0667 -116.8500 31° Northeast 490 564 35,000  Level Edmonton Center
06:24PM 53.1833 -116.7167 34° Northeast 500 575 35,000  Level Edmonton Center
06:25PM 53.3167 -116.6167 24° Northeast 500 575 35,000  Level Edmonton Center
06:26PM 53.4333 -116.5000 31° Northeast 490 564 35,000  Level Edmonton Center
06:27PM 53.5667 -116.4000 24° Northeast 500 575 35,000  Level Edmonton Center
06:28PM 53.6833 -116.2833 31° Northeast 500 575 35,000  Level Edmonton Center
06:29PM 53.8000 -116.1500 34° Northeast 490 564 35,000  Level Edmonton Center
06:30PM 53.9167 -116.0333 30° Northeast 500 575 35,000  Level Edmonton Center
06:31PM 54.0333 -115.9167 30° Northeast 490 564 35,000  Level Edmonton Center
06:32PM 54.1500 -115.7833 34° Northeast 500 575 35,000  Level Edmonton Center
06:33PM 54.2667 -115.6667 30° Northeast 500 575 35,000  Level Edmonton Center
06:34PM 54.4000 -115.5167 33° Northeast 500 575 35,000  Level Edmonton Center
06:35PM 54.5167 -115.4000 30° Northeast 490 564 35,000  Level Edmonton Center
06:36PM 54.6333 -115.2667 33° Northeast 490 564 35,000  Level Edmonton Center
06:37PM 54.7333 -115.1500 34° Northeast 500 575 35,000  Level Edmonton Center
06:38PM 54.8500 -115.0000 36° Northeast 490 564 35,000  Level Edmonton Center
06:39PM 54.9667 -114.8500 36° Northeast 490 564 35,000  Level Edmonton Center
06:40PM 55.0833 -114.7167 33° Northeast 490 564 35,000  Level Edmonton Center
06:41PM 55.2000 -114.5667 36° Northeast 490 564 35,000  Level Edmonton Center
06:42PM 55.3167 -114.4500 30° Northeast 490 564 35,000  Level Edmonton Center
06:43PM 55.4167 -114.3000 40° Northeast 500 575 35,000  Level Edmonton Center
06:44PM 55.5333 -114.1833 29° Northeast 500 575 35,000  Level Edmonton Center
06:45PM 55.6500 -114.0167 39° Northeast 500 575 35,000  Level Edmonton Center
06:46PM 55.7833 -113.8667 32° Northeast 500 575 35,000  Level Edmonton Center
06:47PM 55.8833 -113.7500 33° Northeast 500 575 35,000  Level Edmonton Center
06:48PM 55.9833 -113.6167 37° Northeast 500 575 35,000  Level Edmonton Center
06:49PM 56.1167 -113.4667 32° Northeast 500 575 35,000  Level Edmonton Center
06:50PM 56.2333 -113.3000 38° Northeast 500 575 35,000  Level Edmonton Center
06:51PM 56.3500 -113.1500 35° Northeast 500 575 35,000  Level Edmonton Center
06:52PM 56.4500 -113.0167 36° Northeast 500 575 35,000  Level Edmonton Center
06:53PM 56.5667 -112.8500 38° Northeast 500 575 35,000  Level Edmonton Center
06:54PM 56.6833 -112.7167 32° Northeast 490 564 35,000  Level Edmonton Center
06:55PM 56.7833 -112.5667 39° Northeast 490 564 35,000  Level Edmonton Center
06:56PM 56.9000 -112.4333 32° Northeast 490 564 35,000  Level Edmonton Center
06:57PM 57.0167 -112.2667 38° Northeast 490 564 35,000  Level Edmonton Center
06:58PM 57.1333 -112.1000 38° Northeast 500 575 35,000  Level Edmonton Center
06:59PM 57.2500 -111.9667 32° Northeast 500 575 35,000  Level Edmonton Center
07:00PM 57.3667 -111.8000 38° Northeast 500 575 35,000  Level Edmonton Center
07:01PM 57.4667 -111.6500 39° Northeast 490 564 35,000  Level Edmonton Center
07:02PM 57.5833 -111.4833 37° Northeast 490 564 35,000  Level Edmonton Center
07:03PM 57.7000 -111.3500 31° Northeast 490 564 35,000  Level Edmonton Center
07:04PM 57.8000 -111.1833 42° Northeast 490 564 35,000  Level Edmonton Center
07:05PM 57.9167 -111.0000 40° Northeast 490 564 35,000  Level Edmonton Center
07:06PM 58.0167 -110.8667 35° Northeast 490 564 35,000  Level Edmonton Center
07:07PM 58.1333 -110.6833 40° Northeast 490 564 35,000  Level Edmonton Center
07:08PM 58.2500 -110.5333 34° Northeast 490 564 35,000  Level Edmonton Center
07:09PM 58.3500 -110.3667 41° Northeast 490 564 35,000  Level Edmonton Center
07:10PM 58.4667 -110.2167 34° Northeast 490 564 35,000  Level Edmonton Center
07:11PM 58.5667 -110.0333 44° Northeast 480 552 35,000  Level Edmonton Center
07:12PM 58.6833 -109.8833 34° Northeast 490 564 35,000  Level Edmonton Center
07:13PM 58.7833 -109.7167 41° Northeast 490 564 35,000  Level Edmonton Center
07:14PM 58.9000 -109.5667 34° Northeast 490 564 35,000  Level Edmonton Center
07:15PM 59.0000 -109.3833 43° Northeast 490 564 35,000  Level Edmonton Center
07:16PM 59.1000 -109.2167 41° Northeast 490 564 35,000  Level Edmonton Center
07:17PM 59.2167 -109.0333 39° Northeast 480 552 35,000  Level Edmonton Center
07:18PM 59.3167 -108.8833 37° Northeast 480 552 35,000  Level Edmonton Center
07:19PM 59.4333 -108.7000 39° Northeast 490 564 35,000  Level Edmonton Center
07:20PM 59.5333 -108.5333 40° Northeast 490 564 35,000  Level Edmonton Center
07:21PM 59.6333 -108.3167 48° Northeast 490 564 35,000  Level Edmonton Center
07:22PM 59.7167 -108.1167 50° Northeast 500 575 35,000  Level Edmonton Center
07:23PM 59.7833 -107.9000 58° Northeast 490 564 35,000  Level Edmonton Center
07:24PM 59.8833 -107.7000 45° Northeast 490 564 35,000  Level Edmonton Center
07:25PM 59.9667 -107.4667 54° Northeast 490 564 35,000  Level Edmonton Center
07:26PM 60.0500 -107.2333 54° Northeast 500 575 35,000  Level Edmonton Center
07:27PM 60.1500 -107.0333 45° Northeast 500 575 35,000  Level Edmonton Center
07:28PM 60.2333 -106.8000 54° Northeast 490 564 35,000  Level Edmonton Center
07:29PM 60.3167 -106.6000 50° Northeast 490 564 35,000  Level Edmonton Center
07:30PM 60.4167 -106.3333 53° Northeast 490 564 35,000  Level Edmonton Center
07:31PM 60.5000 -106.1333 50° Northeast 500 575 35,000  Level Edmonton Center
07:32PM 60.5833 -105.8833 56° Northeast 490 564 35,000  Level Edmonton Center
07:33PM 60.6500 -105.6833 56° Northeast 490 564 35,000  Level Edmonton Center
07:34PM 60.7333 -105.4500 54° Northeast 490 564 35,000  Level Edmonton Center
07:35PM 60.8167 -105.2000 56° Northeast 490 564 35,000  Level Edmonton Center
07:36PM 60.9000 -105.0000 49° Northeast 490 564 35,000  Level Edmonton Center
07:37PM 61.0000 -104.7500 50° Northeast 490 564 35,000  Level Edmonton Center
07:38PM 61.0833 -104.5000 55° Northeast 500 575 35,000  Level Edmonton Center
07:39PM 61.1500 -104.2833 57° Northeast 500 575 35,000  Level Edmonton Center
07:40PM 61.2333 -104.0333 55° Northeast 490 564 35,000  Level Edmonton Center
07:41PM 61.3167 -103.8333 49° Northeast 490 564 35,000  Level Edmonton Center
07:42PM 61.4000 -103.5667 57° Northeast 490 564 35,000  Level Edmonton Center
07:43PM 61.4500 -103.3500 64° Northeast 490 564 35,000  Level Edmonton Center
07:44PM 61.5333 -103.1000 55° Northeast 490 564 35,000  Level Edmonton Center
07:45PM 61.6167 -102.8833 51° Northeast 490 564 35,000  Level Edmonton Center
07:46PM 61.7000 -102.6333 55° Northeast 490 564 35,000  Level Edmonton Center
07:47PM 61.7833 -102.3667 56° Northeast 490 564 35,000  Level Edmonton Center
07:48PM 61.8667 -102.1167 55° Northeast 490 564 35,000  Level Edmonton Center
07:49PM 61.9333 -101.8833 59° Northeast 490 564 35,000  Level Edmonton Center
07:50PM 62.0000 -101.6333 60° Northeast 490 564 35,000  Level Edmonton Center
07:51PM 62.0833 -101.4000 53° Northeast 490 564 35,000  Level Edmonton Center
07:57PM 62.5000 -99.9833 55° Northeast 480 552 35,000  Level Edmonton Center
07:58PM 62.5667 -99.7667 56° Northeast 480 552 35,000  Level Edmonton Center
07:59PM 62.6333 -99.5167 60° Northeast 480 552 35,000  Level Edmonton Center
08:00PM 62.7167 -99.2500 56° Northeast 480 552 35,000  Level Edmonton Center
08:01PM 62.7833 -99.0167 58° Northeast 480 552 35,000  Level Edmonton Center
08:02PM 62.8667 -98.7667 54° Northeast 480 552 35,000  Level Edmonton Center
08:03PM 62.9333 -98.5000 61° Northeast 490 564 35,000  Level Edmonton Center
08:04PM 63.0000 -98.2500 59° Northeast 490 564 35,000  Level Edmonton Center
08:05PM 63.0833 -97.9833 55° Northeast 490 564 35,000  Level Edmonton Center
08:06PM 63.1667 -97.7333 53° Northeast 490 564 35,000  Level Edmonton Center
08:07PM 63.2333 -97.4500 62° Northeast 500 575 35,000  Level Edmonton Center
08:08PM 63.3167 -97.2000 53° Northeast 490 564 35,000  Level Edmonton Center
08:09PM 63.3833 -96.9167 62° Northeast 490 564 35,000  Level Edmonton Center
08:10PM 63.4500 -96.6667 59° Northeast 500 575 35,000  Level Edmonton Center
08:11PM 63.5167 -96.3833 62° Northeast 500 575 35,000  Level Edmonton Center
08:12PM 63.5833 -96.1167 61° Northeast 500 575 35,000  Level Edmonton Center
08:13PM 63.6667 -95.8333 56° Northeast 500 575 35,000  Level Edmonton Center
08:14PM 63.7500 -95.5667 55° Northeast 510 587 35,000  Level Edmonton Center
08:15PM 63.8167 -95.2833 62° Northeast 510 587 35,000  Level Edmonton Center
08:16PM 63.8833 -94.9833 63° Northeast 510 587 35,000  Level Edmonton Center
08:17PM 63.9500 -94.6833 63° Northeast 510 587 35,000  Level Edmonton Center
08:18PM 64.0167 -94.4167 60° Northeast 510 587 35,000  Level Edmonton Center
08:19PM 64.0833 -94.1333 62° Northeast 510 587 35,000  Level Edmonton Center
08:20PM 64.1500 -93.8333 63° Northeast 510 587 35,000  Level Edmonton Center
08:21PM 64.2333 -93.5500 56° Northeast 510 587 35,000  Level Edmonton Center
08:22PM 64.3000 -93.2500 63° Northeast 510 587 35,000  Level Edmonton Center
08:23PM 64.3500 -92.9500 69° East 510 587 35,000  Level Edmonton Center
08:24PM 64.4167 -92.6833 60° Northeast 510 587 35,000  Level Edmonton Center
08:25PM 64.5000 -92.3667 58° Northeast 510 587 35,000  Level Edmonton Center
08:26PM 64.5500 -92.0667 69° East 510 587 35,000  Level Edmonton Center
08:27PM 64.6167 -91.7833 61° Northeast 510 587 35,000  Level Edmonton Center
08:28PM 64.7000 -91.4667 58° Northeast 510 587 35,000  Level Edmonton Center
08:29PM 64.7500 -91.1500 70° East 510 587 35,000  Level Edmonton Center
08:30PM 64.8167 -90.8500 62° Northeast 510 587 35,000  Level Edmonton Center
08:31PM 64.8667 -90.5667 67° East 510 587 35,000  Level Edmonton Center
08:32PM 64.9500 -90.2333 59° Northeast 510 587 35,000  Level Edmonton Center
08:33PM 65.0000 -89.9167 69° East 510 587 35,000  Level Edmonton Center
08:34PM 65.0833 -89.6667 52° Northeast 510 587 35,000  Level Edmonton Center
08:35PM 65.1667 -89.3667 56° Northeast 510 587 35,000  Level Edmonton Center
08:36PM 65.2500 -89.1167 51° Northeast 510 587 35,000  Level Edmonton Center
08:37PM 65.3333 -88.8167 56° Northeast 520 598 35,000  Level Edmonton Center
08:38PM 65.4167 -88.5667 51° Northeast 510 587 35,000  Level Edmonton Center
08:39PM 65.5000 -88.2500 57° Northeast 510 587 35,000  Level Edmonton Center
08:40PM 65.5667 -87.9833 59° Northeast 510 587 35,000  Level Edmonton Center
08:41PM 65.6667 -87.6833 51° Northeast 510 587 35,000  Level Edmonton Center
08:42PM 65.7333 -87.4167 59° Northeast 510 587 35,000  Level Edmonton Center
08:43PM 65.8000 -87.1167 61° Northeast 510 587 35,000  Level Edmonton Center
08:44PM 65.9000 -86.8333 49° Northeast 510 587 35,000  Level Edmonton Center
08:45PM 65.9667 -86.5333 61° Northeast 510 587 35,000  Level Edmonton Center
08:46PM 66.0500 -86.2500 54° Northeast 510 587 35,000  Level Edmonton Center
08:47PM 66.1167 -85.9333 62° Northeast 510 587 35,000  Level Edmonton Center
08:48PM 66.2000 -85.6500 54° Northeast 510 587 35,000  Level Edmonton Center
08:49PM 66.2667 -85.3333 62° Northeast 510 587 35,000  Level Edmonton Center
08:50PM 66.3667 -85.0500 49° Northeast 510 587 35,000  Level Edmonton Center
08:51PM 66.4333 -84.7333 62° Northeast 510 587 35,000  Level Edmonton Center
08:52PM 66.5167 -84.4333 55° Northeast 510 587 35,000  Level Edmonton Center
08:53PM 66.5667 -84.1167 68° East 510 587 35,000  Level Edmonton Center
08:54PM 66.6500 -83.8333 53° Northeast 510 587 35,000  Level Edmonton Center
08:55PM 66.7333 -83.4833 59° Northeast 520 598 35,000  Level Edmonton Center
08:56PM 66.8000 -83.1500 63° Northeast 520 598 35,000  Level Edmonton Center
08:57PM 66.8833 -82.8500 55° Northeast 520 598 35,000  Level Edmonton Center
08:58PM 66.9333 -82.5167 69° East 520 598 35,000  Level Edmonton Center
08:59PM 67.0167 -82.2167 54° Northeast 520 598 35,000  Level Edmonton Center
09:00PM 67.1000 -81.8667 58° Northeast 520 598 35,000  Level Edmonton Center
09:01PM 67.1667 -81.5833 59° Northeast 510 587 35,000  Level Edmonton Center
09:02PM 67.2333 -81.2333 64° Northeast 510 587 35,000  Level Edmonton Center
09:03PM 67.2833 -80.8833 70° East 510 587 35,000  Level Edmonton Center
09:04PM 67.3667 -80.5667 56° Northeast 520 598 35,000  Level Edmonton Center
09:05PM 67.4167 -80.2333 69° East 510 587 35,000  Level Edmonton Center
09:06PM 67.4833 -79.8667 64° Northeast 510 587 35,000  Level Edmonton Center
09:07PM 67.5667 -79.5500 55° Northeast 510 587 35,000  Level Edmonton Center
09:08PM 67.6333 -79.2500 60° Northeast 520 598 35,000  Level Edmonton Center
09:09PM 67.7000 -78.8833 64° Northeast 520 598 35,000  Level Edmonton Center
09:10PM 67.7667 -78.5500 62° Northeast 520 598 35,000  Level Edmonton Center
09:11PM 67.8333 -78.2333 61° Northeast 520 598 35,000  Level Edmonton Center
09:12PM 67.9000 -77.8500 65° Northeast 520 598 35,000  Level Edmonton Center
09:13PM 67.9667 -77.5500 59° Northeast 520 598 35,000  Level Edmonton Center
09:14PM 68.0333 -77.2167 62° Northeast 520 598 35,000  Level Edmonton Center
09:15PM 68.1000 -76.8333 65° Northeast 530 610 35,000  Level Edmonton Center
09:16PM 68.1667 -76.5000 62° Northeast 530 610 35,000  Level Edmonton Center
09:17PM 68.2333 -76.1167 65° Northeast 530 610 35,000  Level Edmonton Center
09:18PM 68.3000 -75.7667 63° Northeast 530 610 35,000  Level Edmonton Center
09:19PM 68.3667 -75.4333 61° Northeast 530 610 35,000  Level Edmonton Center
09:20PM 68.4167 -75.0500 70° East 530 610 35,000  Level Edmonton Center
09:21PM 68.4833 -74.7000 62° Northeast 530 610 35,000  Level Edmonton Center
09:22PM 68.5500 -74.3000 65° Northeast 540 621 35,000  Level Edmonton Center
09:23PM 68.6000 -73.9167 70° East 540 621 35,000  Level Edmonton Center
09:24PM 68.6667 -73.5667 62° Northeast 540 621 35,000  Level Edmonton Center
09:25PM 68.7167 -73.1667 71° East 540 621 35,000  Level Edmonton Center
09:26PM 68.7833 -72.8167 62° Northeast 540 621 35,000  Level Edmonton Center
09:27PM 68.8333 -72.4167 71° East 540 621 35,000  Level Edmonton Center
09:28PM 68.9000 -72.0333 64° Northeast 540 621 35,000  Level Edmonton Center
09:29PM 68.9500 -71.6333 71° East 540 621 35,000  Level Edmonton Center
09:30PM 69.0000 -71.2167 71° East 550 633 35,000  Level Edmonton Center
09:31PM 69.0667 -70.8500 63° Northeast 550 633 35,000  Level Edmonton Center
09:32PM 69.1000 -70.4500 77° East 550 633 35,000  Level Edmonton Center
09:33PM 69.1667 -70.0833 63° Northeast 560 644 35,000  Level Edmonton Center
09:34PM 69.2167 -69.6000 74° East 550 633 35,000  Level Edmonton Center
09:35PM 69.2667 -69.2333 69° East 550 633 35,000  Level Edmonton Center
09:36PM 69.3167 -68.8500 70° East 550 633 35,000  Level Edmonton Center
09:37PM 69.3667 -68.4333 71° East 550 633 35,000  Level Edmonton Center
09:38PM 69.4000 -68.0167 77° East 550 633 35,000  Level Edmonton Center
09:39PM 69.4667 -67.6167 64° Northeast 550 633 35,000  Level Edmonton Center
09:40PM 69.5000 -67.2000 77° East 560 644 35,000  Level Edmonton Center
09:41PM 69.5500 -66.7667 72° East 560 644 35,000  Level Edmonton Center
09:42PM 69.5833 -66.3500 77° East 550 633 35,000  Level Edmonton Center
09:43PM 69.6500 -65.9333 65° Northeast 550 633 35,000  Level Edmonton Center
09:44PM 69.6833 -65.5167 77° East 550 633 35,000  Level Edmonton Center
09:45PM 69.7167 -65.0833 77° East 550 633 35,000  Level Edmonton Center
09:46PM 69.7667 -64.6333 72° East 550 633 35,000  Level Edmonton Center
09:47PM 69.8000 -64.2333 76° East 550 633 35,000  Level Edmonton Center
09:48PM 69.8333 -63.8000 77° East 550 633 35,000  Level Edmonton Center
09:49PM 69.8667 -63.4167 76° East 550 633 35,000  Level Edmonton Center
09:50PM 69.9000 -62.9833 77° East 550 633 35,000  Level Edmonton Center
09:51PM 69.9167 -62.5000 84° East 550 633 35,000  Level Edmonton Center
09:52PM 69.9333 -62.0333 84° East 550 633 35,000  Level Edmonton Center
09:53PM 69.9500 -61.6333 83° East 550 633 35,000  Level Edmonton Center
09:54PM 69.9500 -61.1833 90° East 550 633 35,000  Level Edmonton Center
09:55PM 69.9667 -60.7167 84° East 560 644 35,000  Level Edmonton Center
09:56PM 69.9833 -60.3000 83° East 560 644 35,000  Level Edmonton Center
09:57PM 69.9833 -59.8333 90° East 560 644 35,000  Level Edmonton Center
09:58PM 69.9833 -59.3833 90° East 560 644 35,000  Level Edmonton Center
09:59PM 70.0000 -58.9500 83° East 570 656 35,000  Level Edmonton Center
10:00PM 70.0167 -58.4833 84° East 570 656 35,000  Level Edmonton Center
10:01PM 70.0333 -58.0333 84° East 570 656 35,000  Level Edmonton Center
10:02PM 70.0333 -57.5667 90° East 570 656 35,000  Level Edmonton Center
10:03PM 70.0333 -57.0833 90° East 570 656 35,000  Level Edmonton Center
10:04PM 70.0333 -56.6833 90° East 570 656 35,000  Level Edmonton Center
10:05PM 70.0333 -56.2000 90° East 580 667 35,000  Level Edmonton Center
10:06PM 70.0333 -55.7333 90° East 580 667 35,000  Level Edmonton Center
10:07PM 70.0500 -55.3000 83° East 580 667 35,000  Level Edmonton Center
10:08PM 70.0333 -54.8500 96° East 570 656 35,000  Level Edmonton Center
01:00AM 60.1847 2.4822 180° South 536 617 37,000  Climbing FlightAware UK
01:01AM 60.1434 2.6041 124° Southeast 536 617 37,000  Level FlightAware UK
01:01AM 60.1004 2.7257 125° Southeast 536 617 37,000  Level FlightAware UK
01:02AM 60.0575 2.8471 125° Southeast 536 617 37,000  Level FlightAware UK
01:02AM 60.0158 2.9681 125° Southeast 536 617 37,000  Level FlightAware UK
01:03AM 59.9730 3.0888 125° Southeast 538 619 37,000  Level FlightAware UK
01:03AM 59.9299 3.2104 125° Southeast 538 619 37,000  Level FlightAware UK
01:04AM 59.8865 3.3310 126° Southeast 538 619 37,000  Level FlightAware UK
01:04AM 59.8435 3.4516 125° Southeast 536 617 37,000  Level FlightAware UK
01:05AM 59.7995 3.5720 126° Southeast 536 617 37,000  Level FlightAware UK
01:05AM 59.7554 3.6920 126° Southeast 536 617 37,000  Level FlightAware UK
01:06AM 59.7038 3.8348 126° Southeast 534 615 37,000  Level FlightAware UK
01:06AM 59.6594 3.9535 126° Southeast 532 612 37,000  Level FlightAware UK
01:07AM 59.6158 4.0708 126° Southeast 530 610 37,000  Level FlightAware UK
01:07AM 59.5731 4.1876 126° Southeast 530 610 37,000  Level FlightAware UK
01:08AM 59.5290 4.3039 127° Southeast 530 610 37,000  Level FlightAware UK
01:08AM 59.4859 4.4208 126° Southeast 530 610 37,000  Level FlightAware UK
01:09AM 59.4343 4.5597 126° Southeast 532 612 37,000  Level FlightAware UK
01:10AM 59.3911 4.6753 126° Southeast 532 612 37,000  Level FlightAware UK
01:10AM 59.3468 4.7914 127° Southeast 534 615 37,000  Level FlightAware UK
01:11AM 59.2925 4.9291 128° Southeast 534 615 37,000  Level FlightAware UK
01:11AM 59.2480 5.0455 127° Southeast 534 615 37,000  Level FlightAware UK
01:12AM 59.2029 5.1603 127° Southeast 536 617 37,000  Level FlightAware UK
01:12AM 59.1588 5.2757 127° Southeast 536 617 37,000  Level FlightAware UK
01:13AM 59.1143 5.3907 127° Southeast 536 617 37,000  Level FlightAware UK
01:13AM 59.0700 5.5060 127° Southeast 536 617 37,000  Level FlightAware UK
01:14AM 59.0250 5.6204 127° Southeast 536 617 37,000  Level FlightAware UK
01:27AM 57.7080 8.3163 139° Southeast 542 624 37,000  Level FlightAware ADS-B (ESMN)
01:29AM 57.4746 8.6894 139° Southeast 544 626 37,000  Level FlightAware ADS-B (ESMN)
01:29AM 57.3984 8.8106 139° Southeast 544 626 37,000  Level FlightAware ADS-B (ESMN)
01:30AM 57.3296 8.9195 140° Southeast 546 628 37,000  Level FlightAware ADS-B (ESMN)
01:31AM 57.2435 9.0547 140° Southeast 544 626 37,000  Level FlightAware ADS-B (ESMN)
01:31AM 57.1908 9.1372 140° Southeast 543 625 37,000  Level FlightAware ADS-B (ESMN)
01:32AM 57.1198 9.2477 140° Southeast 541 623 37,000  Level FlightAware ADS-B (ESMN)
01:33AM 57.0340 9.3804 140° Southeast 539 620 37,000  Level FlightAware ADS-B (ESMN)
01:33AM 56.9588 9.4962 140° Southeast 537 618 37,000  Level FlightAware ADS-B (ESMN)
01:34AM 56.8812 9.6148 140° Southeast 533 613 37,000  Level FlightAware ADS-B (ESMN)
01:35AM 56.8072 9.7274 140° Southeast 533 613 37,000  Level FlightAware ADS-B (ESMN)
01:35AM 56.7301 9.8440 140° Southeast 533 613 37,000  Level FlightAware ADS-B (ESMN)
01:36AM 56.6534 9.9595 140° Southeast 532 612 37,000  Level FlightAware ADS-B (ESMN)
01:37AM 56.5815 10.0672 141° Southeast 528 608 37,000  Level FlightAware ADS-B (ESMN)
01:37AM 56.4987 10.1905 141° Southeast 529 609 37,000  Level FlightAware ADS-B (ESMN)
01:38AM 56.4218 10.3042 141° Southeast 528 608 37,000  Level FlightAware ADS-B (ESMN)
01:39AM 56.3465 10.4151 141° Southeast 527 606 37,000  Level FlightAware ADS-B (ESMN)
01:39AM 56.2694 10.5281 141° Southeast 530 610 37,000  Level FlightAware ADS-B (ESMN)
01:40AM 56.1935 10.6385 141° Southeast 528 608 37,000  Level FlightAware ADS-B (ESMN)
01:41AM 56.1150 10.7525 141° Southeast 526 605 37,000  Level FlightAware ADS-B (ESMN)
01:41AM 56.0390 10.8624 140° Southeast 527 606 37,000  Level FlightAware ADS-B (ESMN)
01:42AM 55.9658 10.9741 139° Southeast 528 608 37,000  Level FlightAware ADS-B (ESMN)
01:43AM 55.8936 11.0874 138° Southeast 526 605 37,000  Level FlightAware ADS-B (ESMN)
01:43AM 55.8219 11.2018 138° Southeast 525 604 37,000  Level FlightAware ADS-B (ESMN)
01:44AM 55.7489 11.3185 138° Southeast 524 603 37,000  Level FlightAware ADS-B (ESMN)
01:45AM 55.6768 11.4336 138° Southeast 523 602 37,000  Level FlightAware ADS-B (ESMN)
01:45AM 55.6065 11.5451 138° Southeast 522 601 37,000  Level FlightAware ADS-B (ESMN)
01:46AM 55.5330 11.6609 138° Southeast 521 600 37,000  Level FlightAware ADS-B (ESMN)
01:47AM 55.4624 11.7714 138° Southeast 519 597 37,000  Level FlightAware ADS-B (ESMN)
01:47AM 55.3905 11.8835 139° Southeast 518 596 37,000  Level FlightAware ADS-B (ESMN)
01:48AM 55.3184 11.9951 139° Southeast 520 598 37,000  Level FlightAware ADS-B (ESMN)
01:49AM 55.2480 12.1034 139° Southeast 520 598 37,000  Level FlightAware ADS-B (ESMN)
01:49AM 55.1740 12.2166 139° Southeast 519 597 37,000  Level FlightAware ADS-B (ESMN)
01:50AM 55.0925 12.3406 139° Southeast 519 597 37,000  Level FlightAware ADS-B (ESMN)
01:51AM 55.0292 12.4364 139° Southeast 519 597 37,000  Level FlightAware ADS-B (EDDB / SXF)
01:51AM 54.9597 12.5411 139° Southeast 518 596 37,000  Level FlightAware ADS-B (EDDB / SXF)
01:52AM 54.8917 12.6436 138° Southeast 519 597 37,000  Level FlightAware ADS-B (ESMN)
01:53AM 54.8126 12.7760 134° Southeast 515 593 37,000  Level FlightAware ADS-B (EDDB / SXF)
01:53AM 54.7481 12.8935 134° Southeast 514 592 37,000  Level FlightAware ADS-B (EDDB / SXF)
01:54AM 54.6881 13.0007 134° Southeast 514 592 37,000  Level FlightAware ADS-B (ESMN)
01:55AM 54.6231 13.1164 134° Southeast 514 592 37,000  Level FlightAware ADS-B (ESMN)
01:55AM 54.5486 13.2480 134° Southeast 514 592 37,000  Level FlightAware ADS-B (EDDB / SXF)
01:56AM 54.4939 13.3443 134° Southeast 515 593 37,000  Level FlightAware ADS-B (ESMN)
01:57AM 54.4411 13.4368 134° Southeast 514 592 37,000  Level FlightAware ADS-B (ESMN)
01:57AM 54.3648 13.5702 135° Southeast 513 590 37,000  Level FlightAware ADS-B (ESMN)
01:58AM 54.3012 13.6805 135° Southeast 513 590 37,000  Level FlightAware ADS-B (ESMN)
01:59AM 54.2314 13.8009 135° Southeast 511 588 37,000  Level FlightAware ADS-B (ESMN)
01:59AM 54.1688 13.9086 135° Southeast 509 586 37,000  Level FlightAware ADS-B (ESMN)
02:00AM 54.1022 14.0228 135° Southeast 507 583 37,000  Level FlightAware ADS-B (ESMN)
02:01AM 54.0316 14.1432 135° Southeast 506 582 37,000  Level FlightAware ADS-B (ESMN)
02:01AM 53.9717 14.2449 135° Southeast 508 585 37,000  Level FlightAware ADS-B (ESMN)
02:02AM 53.9189 14.3340 135° Southeast 507 583 37,000  Level FlightAware ADS-B (EDDB / SXF)
02:02AM 53.8684 14.4192 135° Southeast 509 586 37,000  Level FlightAware ADS-B (ESMN)
02:03AM 53.7993 14.5349 135° Southeast 511 588 37,000  Level FlightAware ADS-B (ESMN)
02:04AM 53.7342 14.6434 135° Southeast 511 588 37,000  Level FlightAware ADS-B (ESMN)
02:04AM 53.6649 14.7583 136° Southeast 512 589 37,000  Level FlightAware ADS-B (ESMN)
02:05AM 53.5993 14.8668 136° Southeast 511 588 37,000  Level FlightAware ADS-B (ESMN)
02:05AM 53.5420 14.9610 136° Southeast 511 588 37,000  Level FlightAware ADS-B (EDDT / TXL)
02:06AM 53.4803 15.0619 136° Southeast 510 587 37,000  Level FlightAware ADS-B (EDDT / TXL)
02:07AM 53.4349 15.1361 136° Southeast 510 587 37,000  Level FlightAware ADS-B (ESMN)
02:07AM 53.3761 15.2317 136° Southeast 511 588 37,000  Level FlightAware ADS-B (EDDT / TXL)
02:08AM 53.3248 15.3146 136° Southeast 512 589 37,000  Level FlightAware ADS-B (EDDT / TXL)
02:08AM 53.2780 15.3904 136° Southeast 513 590 37,000  Level FlightAware ADS-B (ESMN)
02:09AM 53.1909 15.5304 136° Southeast 511 588 37,000  Level FlightAware ADS-B (ESMN)
02:10AM 53.1325 15.6237 136° Southeast 510 587 37,000  Level FlightAware ADS-B (EDDT / TXL)
02:10AM 53.0804 15.7066 136° Southeast 511 588 37,000  Level FlightAware ADS-B (EDDT / TXL)
02:11AM 53.0320 15.7834 136° Southeast 511 588 37,000  Level FlightAware ADS-B (EPZG / IEG)
02:11AM 52.9717 15.8788 136° Southeast 509 586 37,000  Level FlightAware ADS-B (EDDT / TXL)
02:12AM 52.9052 15.9837 136° Southeast 507 583 37,000  Level FlightAware ADS-B (EDDB / SXF)
02:12AM 52.8380 16.0889 137° Southeast 507 583 37,000  Level FlightAware ADS-B (EDDB / SXF)
02:13AM 52.7885 16.1662 137° Southeast 505 581 37,000  Level FlightAware ADS-B (EPZG / IEG)
02:14AM 52.7246 16.2658 137° Southeast 504 580 37,000  Level FlightAware ADS-B (EPZG / IEG)
02:14AM 52.6334 16.4026 139° Southeast 509 586 37,000  Level FlightAware ADS-B (EDDB / SXF)
02:15AM 52.5820 16.4750 138° Southeast 510 587 37,000  Level FlightAware ADS-B (LKKB)
02:15AM 52.5625 16.5023 140° Southeast 509 586 37,000  Level FlightAware ADS-B (EDDB / SXF)
02:16AM 52.5077 16.5794 139° Southeast 508 585 37,000  Level FlightAware ADS-B (EPPO / POZ)
02:16AM 52.5000 16.5910 138° Southeast 508 585 37,000  Level FlightAware ADS-B (LKKB)
02:16AM 52.4533 16.6562 139° Southeast 509 586 37,000  Level FlightAware ADS-B (EPPO / POZ)
02:17AM 52.4099 16.7175 139° Southeast 510 587 37,000  Level FlightAware ADS-B (EPWR / WRO)
02:17AM 52.3266 16.8351 139° Southeast 510 587 37,000  Level FlightAware ADS-B (EPPO / POZ)
02:18AM 52.2590 16.9300 139° Southeast 510 587 37,000  Level FlightAware ADS-B (EPZG / IEG)
02:19AM 52.1920 17.0238 139° Southeast 507 583 37,000  Level FlightAware ADS-B (EPPO / POZ)
02:19AM 52.1376 17.0995 140° Southeast 506 582 37,000  Level FlightAware ADS-B (EPZG / IEG)
02:20AM 52.0790 17.1800 138° Southeast 507 583 37,000  Level FlightAware ADS-B (LKKB)
02:20AM 52.0573 17.2109 140° Southeast 506 582 37,000  Level FlightAware ADS-B (EPPO / POZ)
02:20AM 52.0190 17.2640 139° Southeast 506 582 37,000  Level FlightAware ADS-B (LKKB)
02:20AM 51.9921 17.3006 140° Southeast 505 581 37,000  Level FlightAware ADS-B (EDDB / SXF)
02:21AM 51.9560 17.3500 139° Southeast 506 582 37,000  Level FlightAware ADS-B (LKKB)
02:21AM 51.9253 17.3925 139° Southeast 503 579 37,000  Level FlightAware ADS-B (EPKK / KRK)
02:22AM 51.8618 17.4791 140° Southeast 506 582 37,000  Level FlightAware ADS-B (EDDB / SXF)
02:22AM 51.7954 17.5695 139° Southeast 503 579 37,000  Level FlightAware ADS-B (EPKK / KRK)
02:23AM 51.7369 17.6491 139° Southeast 503 579 37,000  Level FlightAware ADS-B (EPKK / KRK)
02:23AM 51.7168 17.6762 139° Southeast 503 579 37,000  Level FlightAware ADS-B (EPKK / KRK)
02:24AM 51.6587 17.7548 139° Southeast 503 579 37,000  Level FlightAware ADS-B (EPKK / KRK)
02:24AM 51.6025 17.8304 140° Southeast 504 580 37,000  Level FlightAware ADS-B (EPKK / KRK)
02:25AM 51.5204 17.9404 140° Southeast 506 582 37,000  Level FlightAware ADS-B (EPKK / KRK)
02:25AM 51.4659 18.0131 140° Southeast 505 581 37,000  Level FlightAware ADS-B (EPKK / KRK)
02:25AM 51.4600 18.0210 139° Southeast 509 586 37,000 240 Level FlightAware ADS-B (LKKB)
02:26AM 51.3971 18.1047 140° Southeast 509 586 37,200 600 Climbing FlightAware ADS-B (EPWR / WRO)
02:26AM 51.3730 18.1370 140° Southeast 510 587 37,500 1,620 Climbing FlightAware ADS-B (LKKB)
02:27AM 51.3292 18.1947 140° Southeast 506 582 38,100 1,440 Climbing FlightAware ADS-B (EPKK / KRK)
02:27AM 51.3120 18.2180 139° Southeast 508 585 38,300 1,380 Climbing FlightAware ADS-B (LKKB)
02:27AM 51.2734 18.2685 140° Southeast 502 578 38,800 1,020 Climbing FlightAware ADS-B (EPKK / KRK)
02:27AM 51.2420 18.3100 139° Southeast 505 581 39,000 360 Climbing FlightAware ADS-B (LKKB)
02:28AM 51.2138 18.3469 141° Southeast 504 580 39,000  Level FlightAware ADS-B (EPWA / WAW)
02:28AM 51.1800 18.3910 140° Southeast 507 583 39,000  Level FlightAware ADS-B (LKKB)
02:28AM 51.1420 18.4409 140° Southeast 501 577 39,000  Level FlightAware ADS-B (EPWA / WAW)
02:28AM 51.1211 18.4684 141° Southeast 508 585 39,000  Level FlightAware ADS-B (EPKK / KRK)
02:29AM 51.1200 18.4700 139° Southeast 508 585 39,000  Level FlightAware ADS-B (LKKB)
02:29AM 51.1138 18.4778 141° Southeast 508 585 39,000  Level FlightAware ADS-B (LZIB / BTS)
02:29AM 51.0432 18.5698 141° Southeast 507 583 39,000  Level FlightAware ADS-B (EPKK / KRK)
02:29AM 51.0340 18.5820 139° Southeast 508 585 39,000  Level FlightAware ADS-B (LKKB)
02:30AM 51.0065 18.6173 141° Southeast 508 585 39,000  Level FlightAware ADS-B (EPKK / KRK)
02:30AM 50.9125 18.7391 141° Southeast 507 583 39,000  Level FlightAware ADS-B (EPKK / KRK)
02:31AM 50.8830 18.7770 140° Southeast 507 583 39,000  Level FlightAware ADS-B (LKKB)
02:31AM 50.8550 18.8133 141° Southeast 505 581 39,000  Level FlightAware ADS-B (EPKK / KRK)
02:31AM 50.8276 18.8485 141° Southeast 504 580 39,000  Level FlightAware ADS-B (LZIB / BTS)
02:31AM 50.8140 18.8670 139° Southeast 506 582 39,000  Level FlightAware ADS-B (LKKB)
02:32AM 50.7578 18.9380 141° Southeast 503 579 39,000  Level FlightAware ADS-B (EPWA / WAW)
02:32AM 50.7390 18.9610 140° Southeast 503 579 39,000  Level FlightAware ADS-B (LKKB)
02:32AM 50.6989 19.0131 140° Southeast 497 572 39,000  Level FlightAware ADS-B (EPWA / WAW)
02:33AM 50.6455 19.0812 141° Southeast 503 579 39,000  Level FlightAware ADS-B (EPKK / KRK)
02:33AM 50.6213 19.1119 141° Southeast 503 579 39,000  Level FlightAware ADS-B (EPWA / WAW)
02:33AM 50.6097 19.1266 141° Southeast 503 579 39,000  Level FlightAware ADS-B (EPWR / WRO)
02:34AM 50.5520 19.2000 140° Southeast 503 579 39,000  Level FlightAware ADS-B (LKKB)
02:34AM 50.5248 19.2342 141° Southeast 501 577 39,000  Level FlightAware ADS-B (EPKK / KRK)
02:35AM 50.4842 19.2855 141° Southeast 504 580 39,000  Level FlightAware ADS-B (EPWA / WAW)
02:35AM 50.4135 19.3743 141° Southeast 501 577 39,000  Level FlightAware ADS-B (EPKK / KRK)
02:36AM 50.3777 19.4192 141° Southeast 499 574 39,000  Level FlightAware ADS-B (LZIB / BTS)
02:36AM 50.2895 19.5295 141° Southeast 496 571 39,000  Level FlightAware ADS-B (EPKK / KRK)
02:37AM 50.2335 19.5992 141° Southeast 496 571 39,000  Level FlightAware ADS-B (EPKK / KRK)
02:37AM 50.1680 19.6802 141° Southeast 497 572 39,000  Level FlightAware ADS-B (LZIB / BTS)
02:37AM 50.1565 19.6944 142° Southeast 498 573 39,000  Level FlightAware ADS-B (EPWA / WAW)
02:38AM 50.0708 19.8003 141° Southeast 496 571 39,000  Level FlightAware ADS-B (EPKK / KRK)
02:39AM 50.0064 19.8794 142° Southeast 498 573 39,000  Level FlightAware ADS-B (LKCM)
02:39AM 49.9505 19.9479 142° Southeast 503 579 39,000  Level FlightAware ADS-B (EPKK / KRK)
02:40AM 49.9370 19.9644 142° Southeast 504 580 39,000  Level FlightAware ADS-B (LZIB / BTS)
02:42AM 50.0064 19.8794 142° Southeast 501 577 39,000  Level FlightAware ADS-B (LKCM)
02:45AM 49.4046 20.6060 142° Southeast 500 575 39,000  Level FlightAware ADS-B (LZIB / BTS)
02:46AM 49.2459 20.7936 142° Southeast 500 575 39,000  Level FlightAware ADS-B (LZIB / BTS)
02:47AM 49.1241 20.9367 142° Southeast 497 572 39,000  Level FlightAware ADS-B (EPKK / KRK)
02:47AM 49.0525 21.0204 143° Southeast 499 574 39,000  Level FlightAware ADS-B (EPKK / KRK)
02:48AM 48.9854 21.0986 142° Southeast 495 570 39,000  Level FlightAware ADS-B (EPKK / KRK)
02:49AM 48.9013 21.1961 142° Southeast 497 572 39,000  Level FlightAware ADS-B (EPKK / KRK)
02:49AM 48.8456 21.2605 142° Southeast 497 572 39,000  Level FlightAware ADS-B (EPKK / KRK)
02:50AM 48.7414 21.3803 142° Southeast 494 568 39,000  Level FlightAware ADS-B (EPKK / KRK)
02:51AM 48.6841 21.4461 142° Southeast 494 568 39,000  Level FlightAware ADS-B (EPKK / KRK)
02:52AM 48.5977 21.5447 142° Southeast 494 568 39,000  Level FlightAware ADS-B (EPKK / KRK)
02:52AM 48.5183 21.6349 142° Southeast 494 568 39,000  Level FlightAware ADS-B (EPKK / KRK)
02:53AM 48.4469 21.7159 142° Southeast 495 570 39,000  Level FlightAware ADS-B (EPKK / KRK)
02:56AM 48.0837 22.1228 143° Southeast 504 580 39,000  Level FlightAware ADS-B (LRCL / CLJ)
02:57AM 47.9979 22.2179 143° Southeast 505 581 39,000  Level FlightAware ADS-B (LRCL / CLJ)
02:58AM 47.9241 22.2993 144° Southeast 505 581 39,000  Level FlightAware ADS-B (LRCL / CLJ)
02:58AM 47.8476 22.3834 144° Southeast 506 582 39,000  Level FlightAware ADS-B (LRCL / CLJ)
02:59AM 47.7762 22.4656 140° Southeast 513 590 39,000  Level FlightAware ADS-B (LRCL / CLJ)
03:00AM 47.7010 22.5632 137° Southeast 518 596 39,000  Level FlightAware ADS-B (LRCL / CLJ)
03:00AM 47.6318 22.6676 133° Southeast 529 609 39,000  Level FlightAware ADS-B (LRCL / CLJ)
03:01AM 47.5680 22.7750 131° Southeast 533 613 39,000  Level FlightAware ADS-B (LRCL / CLJ)
03:02AM 47.5094 22.8768 130° Southeast 537 618 39,000  Level FlightAware ADS-B (LRCL / CLJ)
03:02AM 47.4398 22.9978 130° Southeast 541 623 39,000  Level FlightAware ADS-B (LRCL / CLJ)
03:03AM 47.3736 23.1133 130° Southeast 542 624 39,000  Level FlightAware ADS-B (LRCL / CLJ)
03:04AM 47.3100 23.2239 130° Southeast 541 623 39,000  Level FlightAware ADS-B (LRCL / CLJ)
03:04AM 47.2477 23.3320 130° Southeast 536 617 39,000  Level FlightAware ADS-B (LRCL / CLJ)
03:05AM 47.1807 23.4474 131° Southeast 534 615 39,000  Level FlightAware ADS-B (LRCL / CLJ)
03:06AM 47.1140 23.5617 131° Southeast 534 615 39,000  Level FlightAware ADS-B (LRCL / CLJ)
03:06AM 47.0504 23.6703 131° Southeast 534 615 39,000  Level FlightAware ADS-B (LRCL / CLJ)
03:07AM 46.9846 23.7825 131° Southeast 534 615 39,000  Level FlightAware ADS-B (LRCL / CLJ)
03:08AM 46.9194 23.8932 131° Southeast 533 613 39,000  Level FlightAware ADS-B (LRCL / CLJ)
03:08AM 46.8560 23.9998 131° Southeast 532 612 39,000  Level FlightAware ADS-B (LRCL / CLJ)
03:09AM 46.7906 24.1082 131° Southeast 530 610 39,000  Level FlightAware ADS-B (LRCL / CLJ)
03:10AM 46.7261 24.2150 131° Southeast 529 609 39,000  Level FlightAware ADS-B (LRCL / CLJ)
03:10AM 46.6627 24.3196 131° Southeast 526 605 39,000  Level FlightAware ADS-B (LRCL / CLJ)
03:11AM 46.5978 24.4263 132° Southeast 526 605 39,000  Level FlightAware ADS-B (LRCL / CLJ)
03:12AM 46.5341 24.5305 132° Southeast 525 604 39,000  Level FlightAware ADS-B (LRCL / CLJ)
03:12AM 46.4848 24.6109 132° Southeast 525 604 39,000  Level FlightAware ADS-B (LRCL / CLJ)
03:13AM 46.3825 24.7771 132° Southeast 526 605 39,000  Level FlightAware ADS-B (LRCL / CLJ)
03:16AM 46.1553 25.1421 132° Southeast 525 604 39,000  Level FlightAware ADS-B (LRCL / CLJ)
03:16AM 46.0834 25.2559 132° Southeast 523 602 39,000  Level FlightAware ADS-B (LRCL / CLJ)
03:22AM 45.5425 26.0988 133° Southeast 525 604 39,000  Level FlightAware ADS-B (LRBS / BBU)
03:23AM 45.4446 26.2485 133° Southeast 523 602 39,000  Level FlightAware ADS-B (LRBS / BBU)
03:24AM 45.3745 26.3552 133° Southeast 522 601 39,000  Level FlightAware ADS-B (LRBS / BBU)
03:24AM 45.3096 26.4538 133° Southeast 522 601 39,000  Level FlightAware ADS-B (LRBS / BBU)
03:25AM 45.2427 26.5549 133° Southeast 521 600 39,000  Level FlightAware ADS-B (LRBS / BBU)
03:26AM 45.1828 26.6450 133° Southeast 519 597 39,000  Level FlightAware ADS-B (LRBS / BBU)
03:26AM 45.1172 26.7436 133° Southeast 519 597 39,000  Level FlightAware ADS-B (LRBS / BBU)
03:27AM 45.0262 26.8796 133° Southeast 516 594 39,000  Level FlightAware ADS-B (LRBS / BBU)
03:28AM 44.9510 26.9914 134° Southeast 517 595 39,000  Level FlightAware ADS-B (LRBS / BBU)
03:29AM 44.8848 27.0895 134° Southeast 517 595 39,000  Level FlightAware ADS-B (LRBS / BBU)
03:31AM 44.6228 27.4746 133° Southeast 516 594 39,000  Level FlightAware ADS-B (LBBG / BOJ)
03:32AM 44.5901 27.5222 133° Southeast 514 592 39,000  Level FlightAware ADS-B (LBBG / BOJ)
03:32AM 44.5352 27.6022 133° Southeast 513 590 39,000  Level FlightAware ADS-B (LBBG / BOJ)
03:33AM 44.4930 27.6632 133° Southeast 512 589 39,000  Level FlightAware ADS-B (LBBG / BOJ)
03:33AM 44.4621 27.7081 133° Southeast 512 589 39,000  Level FlightAware ADS-B (LBBG / BOJ)
03:34AM 44.3857 27.8184 134° Southeast 513 590 39,000  Level FlightAware ADS-B (LBBG / BOJ)
03:34AM 44.3271 27.9027 134° Southeast 514 592 39,000  Level FlightAware ADS-B (LBBG / BOJ)
03:35AM 44.2797 27.9706 134° Southeast 514 592 39,000  Level FlightAware ADS-B (LBBG / BOJ)
03:35AM 44.2310 28.0403 134° Southeast 514 592 39,000  Level FlightAware ADS-B (LBBG / BOJ)
03:36AM 44.1988 28.0861 134° Southeast 512 589 39,000  Level FlightAware ADS-B (LBBG / BOJ)
03:36AM 44.1268 28.1888 134° Southeast 511 588 39,000  Level FlightAware ADS-B (LBBG / BOJ)
03:37AM 44.0779 28.2583 134° Southeast 511 588 39,000  Level FlightAware ADS-B (LBBG / BOJ)
03:37AM 44.0328 28.3222 134° Southeast 513 590 39,000  Level FlightAware ADS-B (LBBG / BOJ)
03:38AM 43.9832 28.3922 134° Southeast 514 592 39,000  Level FlightAware ADS-B (LBBG / BOJ)
03:40AM 43.8486 28.6942 122° Southeast  Level Estimated
03:41AM 43.7728 28.8629 122° Southeast  Level Estimated
03:42AM 43.6967 29.0312 122° Southeast  Level Estimated
03:43AM 43.6204 29.1991 122° Southeast  Level Estimated
03:44AM 43.5439 29.3666 122° Southeast  Level Estimated
03:45AM 43.4671 29.5336 122° Southeast  Level Estimated
03:46AM 43.3900 29.7002 122° Southeast  Level Estimated
03:47AM 43.3127 29.8664 123° Southeast  Level Estimated
03:48AM 43.2352 30.0322 123° Southeast  Level Estimated
03:49AM 43.1574 30.1975 123° Southeast  Level Estimated
03:50AM 43.0794 30.3624 123° Southeast  Level Estimated
03:51AM 43.0012 30.5269 123° Southeast  Level Estimated
03:52AM 42.9227 30.6910 123° Southeast  Level Estimated
03:53AM 42.8440 30.8547 123° Southeast  Level Estimated
03:54AM 42.7651 31.0179 123° Southeast  Level Estimated
03:55AM 42.6859 31.1807 123° Southeast  Level Estimated
03:56AM 42.6065 31.3432 124° Southeast  Level Estimated
03:57AM 42.5269 31.5052 124° Southeast  Level Estimated
03:58AM 42.4470 31.6667 124° Southeast  Level Estimated
03:59AM 42.3669 31.8279 124° Southeast  Level Estimated
04:00AM 42.2866 31.9887 124° Southeast  Level Estimated
04:01AM 42.2061 32.1491 124° Southeast  Level Estimated
04:02AM 42.1253 32.3090 124° Southeast  Level Estimated
04:03AM 42.0477 32.4716 123° Southeast  Level FlightAware Approximate
04:04AM 41.9700 32.6338 123° Southeast  Level FlightAware Approximate
04:05AM 41.8919 32.7956 123° Southeast  Level FlightAware Approximate
04:06AM 41.8137 32.9570 123° Southeast  Level FlightAware Approximate
04:07AM 41.7352 33.1180 123° Southeast  Level FlightAware Approximate
04:08AM 41.6565 33.2786 123° Southeast  Level FlightAware Approximate
04:09AM 41.5776 33.4388 123° Southeast  Level FlightAware Approximate
04:10AM 41.4984 33.5986 123° Southeast  Level FlightAware Approximate
04:11AM 41.4190 33.7581 124° Southeast  Level FlightAware Approximate
04:12AM 41.3395 33.9171 124° Southeast  Level FlightAware Approximate
04:13AM 41.2597 34.0758 124° Southeast  Level FlightAware Approximate
04:14AM 41.1796 34.2340 124° Southeast  Level FlightAware Approximate
04:15AM 41.0994 34.3919 124° Southeast  Level FlightAware Approximate
04:16AM 41.0189 34.5494 124° Southeast  Level FlightAware Approximate
04:17AM 40.9383 34.7065 124° Southeast  Level FlightAware Approximate
04:18AM 40.8574 34.8633 124° Southeast  Level FlightAware Approximate
04:19AM 40.7763 35.0196 124° Southeast  Level FlightAware Approximate
04:20AM 40.6950 35.1756 124° Southeast  Level FlightAware Approximate
04:21AM 40.6135 35.3311 125° Southeast  Level FlightAware Approximate
04:22AM 40.5308 35.4878 127° Southeast  Level FlightAware Approximate
04:23AM 40.4451 35.6390 127° Southeast  Level FlightAware Approximate
04:24AM 40.3592 35.7899 127° Southeast  Level FlightAware Approximate
04:25AM 40.2732 35.9403 127° Southeast  Level FlightAware Approximate
04:26AM 40.1869 36.0904 127° Southeast  Level FlightAware Approximate
04:27AM 40.1004 36.2402 127° Southeast  Level FlightAware Approximate
04:28AM 40.0137 36.3895 127° Southeast  Level FlightAware Approximate
04:29AM 39.9269 36.5384 127° Southeast  Level FlightAware Approximate
04:30AM 39.8398 36.6870 127° Southeast  Level FlightAware Approximate
04:31AM 39.7526 36.8352 127° Southeast  Level FlightAware Approximate
04:32AM 39.6651 36.9831 128° Southeast  Level FlightAware Approximate
04:33AM 39.5775 37.1305 128° Southeast  Level FlightAware Approximate
04:34AM 39.4897 37.2776 128° Southeast  Level FlightAware Approximate
04:35AM 39.4017 37.4243 128° Southeast  Level FlightAware Approximate
04:36AM 39.3136 37.5706 128° Southeast  Level FlightAware Approximate
04:37AM 39.2252 37.7166 128° Southeast  Level FlightAware Approximate
04:38AM 39.1367 37.8622 128° Southeast  Level FlightAware Approximate
04:39AM 39.0480 38.0074 128° Southeast  Level FlightAware Approximate
04:40AM 38.9591 38.1523 128° Southeast  Level FlightAware Approximate
04:41AM 38.8700 38.2968 128° Southeast  Level FlightAware Approximate
04:42AM 38.7808 38.4409 128° Southeast  Level FlightAware Approximate
04:43AM 38.6913 38.5847 129° Southeast  Level FlightAware Approximate
04:44AM 38.6017 38.7282 129° Southeast  Level FlightAware Approximate
04:45AM 38.5119 38.8712 129° Southeast  Level FlightAware Approximate
04:46AM 38.4220 39.0139 129° Southeast  Level FlightAware Approximate
04:47AM 38.3319 39.1563 129° Southeast  Level FlightAware Approximate
04:48AM 38.2416 39.2983 129° Southeast  Level FlightAware Approximate
04:49AM 38.1511 39.4399 129° Southeast  Level FlightAware Approximate
04:50AM 38.0605 39.5812 129° Southeast  Level FlightAware Approximate
04:51AM 37.9697 39.7222 129° Southeast  Level FlightAware Approximate
04:52AM 37.8787 39.8628 129° Southeast  Level FlightAware Approximate
04:53AM 37.7876 40.0030 129° Southeast  Level FlightAware Approximate
04:54AM 37.6963 40.1429 129° Southeast  Level FlightAware Approximate
04:55AM 37.6048 40.2825 130° Southeast  Level FlightAware Approximate
04:56AM 37.5131 40.4217 130° Southeast  Level FlightAware Approximate
04:57AM 37.4213 40.5606 130° Southeast  Level FlightAware Approximate
04:58AM 37.3294 40.6991 130° Southeast  Level FlightAware Approximate
04:59AM 37.2373 40.8373 130° Southeast  Level FlightAware Approximate
05:00AM 37.1450 40.9752 130° Southeast  Level FlightAware Approximate
05:01AM 37.0526 41.1127 130° Southeast  Level FlightAware Approximate
05:02AM 36.9599 41.2499 130° Southeast  Level FlightAware Approximate
05:03AM 36.8672 41.3867 130° Southeast  Level FlightAware Approximate
05:04AM 36.7743 41.5233 130° Southeast  Level FlightAware Approximate
05:05AM 36.6812 41.6595 130° Southeast  Level FlightAware Approximate
05:06AM 36.5880 41.7953 130° Southeast  Level FlightAware Approximate
05:07AM 36.4946 41.9309 131° Southeast  Level FlightAware Approximate
05:08AM 36.4011 42.0661 131° Southeast  Level FlightAware Approximate
05:09AM 36.3074 42.2010 131° Southeast  Level FlightAware Approximate
05:10AM 36.2136 42.3356 131° Southeast  Level FlightAware Approximate
05:11AM 36.1198 42.4700 131° Southeast  Level FlightAware Approximate
05:12AM 36.0259 42.6041 131° Southeast  Level FlightAware Approximate
05:13AM 35.9318 42.7379 131° Southeast  Level FlightAware Approximate
05:14AM 35.8375 42.8713 131° Southeast  Level FlightAware Approximate
05:15AM 35.7431 43.0045 131° Southeast  Level FlightAware Approximate
05:16AM 35.6485 43.1373 131° Southeast  Level FlightAware Approximate
05:17AM 35.5538 43.2698 131° Southeast  Level FlightAware Approximate
05:18AM 35.4590 43.4020 131° Southeast  Level FlightAware Approximate
05:19AM 35.3640 43.5339 131° Southeast  Level FlightAware Approximate
05:20AM 35.2689 43.6655 132° Southeast  Level FlightAware Approximate
05:21AM 35.1736 43.7967 132° Southeast  Level FlightAware Approximate
05:22AM 35.0782 43.9277 132° Southeast  Level FlightAware Approximate
05:23AM 34.9827 44.0583 132° Southeast  Level FlightAware Approximate
05:24AM 34.8870 44.1887 132° Southeast  Level FlightAware Approximate
05:25AM 34.7911 44.3187 132° Southeast  Level FlightAware Approximate
05:26AM 34.6951 44.4485 132° Southeast  Level FlightAware Approximate
05:27AM 34.5990 44.5779 132° Southeast  Level FlightAware Approximate
05:28AM 34.5028 44.7071 132° Southeast  Level FlightAware Approximate
05:29AM 34.4063 44.8358 132° Southeast  Level FlightAware Approximate
05:30AM 34.3095 44.9641 132° Southeast  Level FlightAware Approximate
05:31AM 34.2126 45.0920 132° Southeast  Level FlightAware Approximate
05:32AM 34.1155 45.2196 133° Southeast  Level FlightAware Approximate
05:33AM 34.0183 45.3470 133° Southeast  Level FlightAware Approximate
05:34AM 33.9210 45.4740 133° Southeast  Level FlightAware Approximate
05:35AM 33.8235 45.6008 133° Southeast  Level FlightAware Approximate
05:36AM 33.7259 45.7272 133° Southeast  Level FlightAware Approximate
05:37AM 33.6282 45.8534 133° Southeast  Level FlightAware Approximate
05:38AM 33.5303 45.9793 133° Southeast  Level FlightAware Approximate
05:39AM 33.4324 46.1049 133° Southeast  Level FlightAware Approximate
05:40AM 33.3343 46.2303 133° Southeast  Level FlightAware Approximate
05:41AM 33.2360 46.3553 133° Southeast  Level FlightAware Approximate
05:42AM 33.1377 46.4801 133° Southeast  Level FlightAware Approximate
05:43AM 33.0392 46.6046 133° Southeast  Level FlightAware Approximate
05:44AM 32.9406 46.7288 133° Southeast  Level FlightAware Approximate
05:45AM 32.8419 46.8527 133° Southeast  Level FlightAware Approximate
05:46AM 32.7430 46.9764 134° Southeast  Level FlightAware Approximate
05:47AM 32.6440 47.0997 134° Southeast  Level FlightAware Approximate
05:48AM 32.5449 47.2229 134° Southeast  Level FlightAware Approximate
05:49AM 32.4457 47.3457 134° Southeast  Level FlightAware Approximate
05:50AM 32.3464 47.4683 134° Southeast  Level FlightAware Approximate
05:51AM 32.2470 47.5905 134° Southeast  Level FlightAware Approximate
05:52AM 32.1474 47.7126 134° Southeast  Level FlightAware Approximate
05:53AM 32.0477 47.8343 134° Southeast  Level FlightAware Approximate
05:54AM 31.9479 47.9558 134° Southeast  Level FlightAware Approximate
05:55AM 31.8480 48.0771 134° Southeast  Level FlightAware Approximate
05:56AM 31.7480 48.1981 134° Southeast  Level FlightAware Approximate
05:57AM 31.6478 48.3188 134° Southeast  Level FlightAware Approximate
05:58AM 31.5476 48.4392 134° Southeast  Level FlightAware Approximate
05:59AM 31.4472 48.5594 134° Southeast  Level FlightAware Approximate
06:00AM 31.3467 48.6793 134° Southeast  Level FlightAware Approximate
06:01AM 31.2461 48.7990 134° Southeast  Level FlightAware Approximate
06:02AM 31.1455 48.9184 135° Southeast  Level FlightAware Approximate
06:03AM 31.0446 49.0376 135° Southeast  Level FlightAware Approximate
06:04AM 30.9437 49.1565 135° Southeast  Level FlightAware Approximate
06:05AM 30.8427 49.2752 135° Southeast  Level FlightAware Approximate
06:06AM 30.7416 49.3936 135° Southeast  Level FlightAware Approximate
06:07AM 30.6403 49.5118 135° Southeast  Level FlightAware Approximate
06:08AM 30.5390 49.6297 135° Southeast  Level FlightAware Approximate
06:09AM 30.4375 49.7474 135° Southeast  Level FlightAware Approximate
06:10AM 30.3359 49.8648 135° Southeast  Level FlightAware Approximate
06:11AM 30.2343 49.9820 135° Southeast  Level FlightAware Approximate
06:12AM 30.1325 50.0989 135° Southeast  Level FlightAware Approximate
06:13AM 30.0306 50.2156 135° Southeast  Level FlightAware Approximate
06:14AM 29.9286 50.3321 135° Southeast  Level FlightAware Approximate
06:15AM 29.8266 50.4483 135° Southeast  Level FlightAware Approximate
06:16AM 29.7244 50.5643 135° Southeast  Level FlightAware Approximate
06:17AM 29.6221 50.6801 135° Southeast  Level FlightAware Approximate
06:18AM 29.5197 50.7956 136° Southeast  Level FlightAware Approximate
06:19AM 29.4172 50.9109 136° Southeast  Level FlightAware Approximate
06:20AM 29.3147 51.0259 136° Southeast  Level FlightAware Approximate
06:21AM 29.2120 51.1408 136° Southeast  Level FlightAware Approximate
06:22AM 29.1092 51.2553 136° Southeast  Level FlightAware Approximate
06:23AM 29.0063 51.3697 136° Southeast  Level FlightAware Approximate
06:24AM 28.9034 51.4838 136° Southeast  Level FlightAware Approximate
06:25AM 28.8003 51.5977 136° Southeast  Level FlightAware Approximate
06:26AM 28.6971 51.7114 136° Southeast  Level FlightAware Approximate
06:27AM 28.5939 51.8249 136° Southeast  Level FlightAware Approximate
06:28AM 28.4905 51.9381 136° Southeast  Level FlightAware Approximate
06:29AM 28.3871 52.0511 136° Southeast  Level FlightAware Approximate
06:30AM 28.2835 52.1639 136° Southeast  Level FlightAware Approximate
06:31AM 28.1799 52.2765 136° Southeast  Level FlightAware Approximate
06:32AM 28.0762 52.3889 136° Southeast  Level FlightAware Approximate
06:33AM 27.9724 52.5010 136° Southeast  Level FlightAware Approximate
06:34AM 27.8685 52.6129 136° Southeast  Level FlightAware Approximate
06:35AM 27.7645 52.7246 136° Southeast  Level FlightAware Approximate
06:36AM 27.6604 52.8361 136° Southeast  Level FlightAware Approximate
06:37AM 27.5562 52.9474 137° Southeast  Level FlightAware Approximate
06:38AM 27.4520 53.0585 137° Southeast  Level FlightAware Approximate
06:39AM 27.3476 53.1693 137° Southeast  Level FlightAware Approximate
06:40AM 27.2432 53.2800 137° Southeast  Level FlightAware Approximate
06:41AM 27.1387 53.3904 137° Southeast  Level FlightAware Approximate
06:42AM 27.0340 53.5007 137° Southeast  Level FlightAware Approximate
06:43AM 26.9293 53.6107 137° Southeast  Level FlightAware Approximate
06:44AM 26.8246 53.7205 137° Southeast  Level FlightAware Approximate
06:45AM 26.7197 53.8302 137° Southeast  Level FlightAware Approximate
06:46AM 26.6210 53.9456 138° Southeast  Level FlightAware Approximate
06:47AM 26.5141 54.0526 138° Southeast  Level FlightAware Approximate
06:48AM 26.4073 54.1595 138° Southeast  Level FlightAware Approximate
06:49AM 26.3005 54.2663 138° Southeast  Level FlightAware Approximate
06:50AM 26.1959 54.3758 136° Southeast  Level FlightAware Approximate
06:51AM 26.0934 54.4875 136° Southeast  Level FlightAware Approximate
06:52AM 25.9879 54.5956 138° Southeast  Level FlightAware Approximate
06:53AM 25.8812 54.7023 138° Southeast  Level FlightAware Approximate
06:54AM 25.7782 54.8131 134° Southeast  Level FlightAware Approximate
06:55AM 25.6757 54.9244 138° Southeast  Level FlightAware Approximate
06:56AM 25.5692 55.0309 138° Southeast  Level FlightAware Approximate
06:57AM 25.4627 55.1374 138° Southeast  Level FlightAware Approximate
06:58AM 25.3562 55.2438 138° Southeast  Level FlightAware Approximate
06:59AM 25.2500 55.3500 138° Southeast  Level FlightAware Approximate
07:00AM 25.2550 55.3643 138° Southeast  Level Estimated
07:01AM 25.2550 55.3643 138° Southeast  Level Estimated
07:02AM 25.2550 55.3643 138° Southeast  Level Estimated
07:03AM 25.2550 55.3643 138° Southeast  Level Estimated
07:04AM 25.2550 55.3643 138° Southeast  Level Estimated
07:05AM 25.2550 55.3643 138° Southeast  Level Estimated
07:06AM 25.2550 55.3643 138° Southeast  Level Estimated
07:07AM 25.2550 55.3643 138° Southeast  Level Estimated
07:08AM 25.2550 55.3643 138° Southeast  Level Estimated
07:09AM 25.2550 55.3643 138° Southeast  Level Estimated
07:10AM 25.2550 55.3643 138° Southeast  Level Estimated
07:11AM 25.2550 55.3643 138° Southeast  Level Estimated
07:12AM 25.2550 55.3643 138° Southeast  Level Estimated
07:13AM 25.2550 55.3643 138° Southeast  Level Estimated
07:14AM 25.2550 55.3643 138° Southeast  Level Estimated
07:15AM 25.2550 55.3643 138° Southeast  Level Estimated
07:16AM 25.2550 55.3643 138° Southeast  Level Estimated
07:17AM 25.2550 55.3643 138° Southeast  Level Estimated
07:18AM 25.2550 55.3643 138° Southeast  Level Estimated
07:19AM 25.2550 55.3643 138° Southeast  Level Estimated
07:20AM 25.2550 55.3643 138° Southeast  Level Estimated
07:21AM 25.2550 55.3643 138° Southeast  Level Estimated
07:22AM 25.2550 55.3643 138° Southeast  Level Estimated
07:23AM 25.2550 55.3643 138° Southeast  Level Estimated
07:24AM 25.2550 55.3643 138° Southeast  Level Estimated
07:25AM 25.2550 55.3643 138° Southeast  Level Estimated
07:26AM 25.2550 55.3643 138° Southeast  Level Estimated
07:27AM 25.2550 55.3643 138° Southeast  Level Estimated
07:28AM 25.2550 55.3643 138° Southeast  Level Estimated
07:29AM 25.2550 55.3643 138° Southeast  Level Estimated
07:30AM 25.2550 55.3643 138° Southeast  Level Estimated
07:31AM 25.2550 55.3643 138° Southeast  Level Estimated
07:32AM 25.2550 55.3643 138° Southeast  Level Estimated
07:33AM 25.2550 55.3643 138° Southeast  Level Estimated
07:34AM 25.2550 55.3643 138° Southeast  Level Estimated
07:35AM 25.2550 55.3643 138° Southeast  Level Estimated
07:36AM 25.2550 55.3643 138° Southeast  Level Estimated
07:37AM 25.2550 55.3643 138° Southeast  Level Estimated
07:38AM 25.2550 55.3643 138° Southeast  Level Estimated
07:39AM 25.2550 55.3643 138° Southeast  Level Estimated
07:40AM 25.2550 55.3643 138° Southeast  Level Estimated
07:41AM 25.2550 55.3643 138° Southeast  Level Estimated
07:42AM 25.2550 55.3643 138° Southeast  Level Estimated
07:43AM 25.2550 55.3643 138° Southeast  Level Estimated
07:44AM 25.2550 55.3643 138° Southeast  Level Estimated
07:45AM 25.2550 55.3643 138° Southeast  Level Estimated
07:46AM 25.2550 55.3643 138° Southeast  Level Estimated